Tucson, AZ

9:32 PM MST on November 25, 2014 (GMT -0700)
Saguaro Hills Estates | Change Station
CLOSE
Current Station
Personal Weather Station
Location: Tucson, AZ
Elevation: 2765 ft
Nearby Weather Stations

Elev 2765 ft 32.30 °N, 110.76 °W | Updated 6 seconds ago

Clear
Clear
39.9 °F
Feels Like 40 °F
N
0.0
Wind Variable Wind from SW
Gusts 0.0 mph

Today
High -- | Low -- °F
--% Chance of Precip.
Yesterday
High -- | Low -- °F
Precip. -- in
7:01 AM 5:18 PM
Waxing Crescent, 16% visible
Pressure 30.30 in
Visibility 10.0 miles
Clouds Clear
Windchill 40 °F
Dew Point 10 °F
Humidity 29%
Rainfall 0.00 in
Snow Depth Not available.
UV 0.0 out of 12
Pollen 2.70 out of 12
Air Quality Not available.
Flu Activity Not available.
METAR KDMA 260358Z AUTO 19002KT 10SM CLR 07/M15 A3032 RMK AO2 SLP261 T00711151 $

More Conditions Fewer Conditions

Pressure 30.30 in
Visibility 10.0 miles
Clouds Clear
Windchill 40 °F
Dew Point 10 °F
Humidity 29%
Rainfall 0.00 in
Snow Depth Not available.
UV 0.0 out of 12
Pollen 2.70 out of 12
Air Quality Not available.
Flu Activity Not available.
METAR KDMA 260358Z AUTO 19002KT 10SM CLR 07/M15 A3032 RMK AO2 SLP261 T00711151 $

More Conditions Fewer Conditions

10-Day Weather Forecast

Almanac

Astronomy

Nov. 25, 2014 Rise Set
Actual Time
Civil Twilight
Nautical Twilight
Astronomical Twilight
Moon
Length of Visible Light
Length of Day
Tomorrow will be .
, % of the Moon is Illuminated

Today's Extremes

State Highs State Lows

Community

WunderPhotos

Upload Photos

1,773,684 photos uploaded!

WunderBlogs® & News

Nearby

Air Quality

  Air Quality AQ Index Pollutant
Not available.

Snow Depth

Station Depth Elevation

Earthquake Activity

City Distance Mag. Time & Date
Minimum magnitude displayed is 2.5.

Coastal Water Temperatures

Place Temperature

Nearby Weather Stations